In Rescue
 
Open Full Screen Window  High Contrast Mode
Wind Gusting 00 knots
12
November 14, 2019 12:51 PM CST
Weather Information
Wind Direction
  240 °
Wind Speed
  12 kt (14 mph)
Wind Gust
  00 kt (0 mph)
Altimeter
30.24 in
Visibility
10 SM
Temperature
-02° C
28° F
Dewpoint
-07° C
19° F
Humidity
69%
1hr Rain Fall
00.00 in.
24hr Rain Fall
00.00 in.
Sky Condition
Missing
VFR

METAR KMWM 141851Z AUTO 24012KT 10SM M02/M07 A3024 RMK AO2

FAA Disclaimer: The data displayed is for advisory purposes only and is not to be used for flight planning or operations.
Missing Cloud Data